Time;durP1;ratioP1;P1;durP2;ratioP2;P2;SDS_P1;SDS_P2;PMS_P1;PMS_P2;Temp;Humidity;BMP_temperature;BMP_pressure;BME280_temperature;BME280_humidity;BME280_pressure;Samples;Min_cycle;Max_cycle;Signal;HPM_P1;HPM_P2
2021/12/03 00:01:53;;;;;;;68.07;36.47;;;;;;;-145.45;100.00;62759.84;5320012;27;20118;-84
2021/12/03 00:04:24;;;;;;;65.25;35.75;;;;;;;-145.45;100.00;62759.84;5326019;27;20138;-83
2021/12/03 00:06:56;;;;;;;68.80;38.83;;;;;;;-145.45;100.00;62759.84;5320698;27;20051;-84
2021/12/03 00:09:32;;;;;;;76.60;37.20;;;;;;;-145.45;100.00;62759.84;5334614;27;20468;-84
2021/12/03 00:12:04;;;;;;;76.55;39.83;;;;;;;-145.45;100.00;62759.84;5352446;27;20031;-84
2021/12/03 00:14:35;;;;;;;67.88;36.25;;;;;;;-145.45;100.00;62759.84;5332291;27;20020;-83
2021/12/03 00:17:07;;;;;;;69.65;38.28;;;;;;;-145.45;100.00;62759.84;5326326;27;20392;-84
2021/12/03 00:19:38;;;;;;;79.75;40.55;;;;;;;-145.45;100.00;62759.84;5315867;27;20031;-84
2021/12/03 00:22:10;;;;;;;80.57;40.97;;;;;;;-145.45;100.00;62759.84;5339877;27;20046;-84
2021/12/03 00:24:41;;;;;;;85.47;41.88;;;;;;;-145.45;100.00;62759.84;5318615;27;20022;-84
2021/12/03 00:27:12;;;;;;;84.80;44.33;;;;;;;-145.45;100.00;62759.84;5353419;27;20347;-84
2021/12/03 00:29:44;;;;;;;81.07;43.42;;;;;;;-145.45;100.00;62759.84;5335422;27;20130;-83
2021/12/03 00:32:16;;;;;;;83.85;43.88;;;;;;;-145.45;100.00;62759.84;5332606;27;20020;-83
2021/12/03 00:34:50;;;;;;;92.78;46.08;;;;;;;-145.45;100.00;62759.84;5349539;27;20034;-84
2021/12/03 00:37:22;;;;;;;87.63;45.15;;;;;;;-145.45;100.00;62759.84;5333660;27;20035;-83
2021/12/03 00:39:54;;;;;;;93.00;46.78;;;;;;;-145.45;100.00;62759.84;5333561;27;20408;-83
2021/12/03 00:42:29;;;;;;;92.40;44.42;;;;;;;-145.45;100.00;62759.84;5327782;27;20031;-83
2021/12/03 00:45:02;;;;;;;92.30;44.83;;;;;;;-145.45;100.00;62759.84;5331537;27;20015;-84
2021/12/03 00:47:33;;;;;;;96.53;46.88;;;;;;;-145.45;100.00;62759.84;5324475;27;20105;-84
2021/12/03 00:50:07;;;;;;;94.90;44.72;;;;;;;-145.45;100.00;62759.84;5334717;27;20529;-84
2021/12/03 00:52:39;;;;;;;102.22;48.58;;;;;;;-145.45;100.00;62759.84;5322304;27;20038;-84
2021/12/03 00:55:11;;;;;;;107.72;49.75;;;;;;;-145.45;100.00;62759.84;5344789;27;20385;-84
2021/12/03 00:57:43;;;;;;;98.93;47.45;;;;;;;-145.45;100.00;62759.84;5340363;27;20035;-84
2021/12/03 01:00:24;;;;;;;111.35;50.63;;;;;;;-145.45;100.00;62759.84;5324319;27;20111;-84
2021/12/03 01:02:58;;;;;;;100.20;49.85;;;;;;;-145.45;100.00;62759.84;5343690;27;20503;-83
2021/12/03 01:05:34;;;;;;;106.18;52.55;;;;;;;-145.45;100.00;62759.84;5319041;27;20439;-85
2021/12/03 01:08:05;;;;;;;134.68;59.90;;;;;;;-145.45;100.00;62759.84;5325995;27;20027;-84
2021/12/03 01:10:37;;;;;;;126.65;57.22;;;;;;;-145.45;100.00;62759.84;5321360;27;20023;-84
2021/12/03 01:13:08;;;;;;;122.22;56.58;;;;;;;-145.45;100.00;62759.84;5330182;27;20024;-84
2021/12/03 01:15:41;;;;;;;139.63;63.05;;;;;;;-145.45;100.00;62759.84;5327093;27;20119;-84
2021/12/03 01:18:13;;;;;;;169.57;66.05;;;;;;;-145.45;100.00;62759.84;5333115;27;20380;-84
2021/12/03 01:20:45;;;;;;;143.90;64.22;;;;;;;-145.45;100.00;62759.84;5329967;27;20066;-84
2021/12/03 01:23:17;;;;;;;144.43;59.67;;;;;;;-145.45;100.00;62759.84;5328042;27;20055;-83
2021/12/03 01:25:48;;;;;;;147.60;66.57;;;;;;;-145.45;100.00;62759.84;5343654;27;20073;-83
2021/12/03 01:28:19;;;;;;;143.38;63.70;;;;;;;-145.45;100.00;62759.84;5336144;27;20027;-83
2021/12/03 01:30:51;;;;;;;132.27;69.30;;;;;;;-145.45;100.00;62759.84;5342554;27;20059;-83
2021/12/03 01:33:23;;;;;;;141.02;63.90;;;;;;;-145.45;100.00;62759.84;5347324;27;20032;-83
2021/12/03 01:35:55;;;;;;;134.73;65.32;;;;;;;-145.45;100.00;62759.84;5333366;27;20111;-84
2021/12/03 01:38:26;;;;;;;133.95;65.55;;;;;;;-145.45;100.00;62759.84;5326238;27;20063;-83
2021/12/03 01:40:58;;;;;;;128.77;62.22;;;;;;;-145.45;100.00;62759.84;5332580;27;20032;-84
2021/12/03 01:43:30;;;;;;;135.32;64.13;;;;;;;-145.45;100.00;62759.84;5328075;27;20458;-84
2021/12/03 01:46:08;;;;;;;144.27;66.00;;;;;;;-145.45;100.00;62759.84;5342885;27;20317;-84
2021/12/03 01:48:40;;;;;;;127.47;63.53;;;;;;;-145.45;100.00;62759.84;5327783;27;20031;-84
2021/12/03 01:51:11;;;;;;;130.02;62.67;;;;;;;-145.45;100.00;62759.84;5334765;27;20087;-84
2021/12/03 01:53:42;;;;;;;152.10;71.43;;;;;;;-145.45;100.00;62759.84;5324561;27;20023;-84
2021/12/03 01:56:15;;;;;;;162.73;73.35;;;;;;;-145.45;100.00;62759.84;5317885;27;20446;-84
2021/12/03 01:58:49;;;;;;;176.95;76.10;;;;;;;-145.45;100.00;62759.84;5317898;27;20038;-84
2021/12/03 02:01:24;;;;;;;201.57;76.15;;;;;;;-145.45;100.00;62759.84;5331132;27;20036;-84
2021/12/03 02:03:58;;;;;;;201.85;72.78;;;;;;;-145.45;100.00;62759.84;5328506;27;20073;-84
2021/12/03 02:06:30;;;;;;;225.38;77.82;;;;;;;-145.45;100.00;62759.84;5323173;27;20132;-84
2021/12/03 02:09:04;;;;;;;263.63;85.78;;;;;;;-145.45;100.00;62759.84;5337146;27;20036;-84
2021/12/03 02:11:36;;;;;;;279.85;84.30;;;;;;;-145.45;100.00;62759.84;5327404;27;20463;-84
2021/12/03 02:14:08;;;;;;;308.10;89.20;;;;;;;-145.45;100.00;62759.84;5327164;27;20024;-84
2021/12/03 02:16:40;;;;;;;304.67;82.30;;;;;;;-145.45;100.00;62759.84;5327228;27;20045;-84
2021/12/03 02:19:12;;;;;;;335.15;90.97;;;;;;;-145.45;100.00;62759.84;5324011;27;20380;-84
2021/12/03 02:21:44;;;;;;;374.67;82.60;;;;;;;-145.45;100.00;62759.84;5339176;27;20119;-84
2021/12/03 02:24:21;;;;;;;354.77;83.43;;;;;;;-145.45;100.00;62759.84;5337146;27;20019;-84
2021/12/03 02:26:52;;;;;;;338.42;89.43;;;;;;;-145.45;100.00;62759.84;5345293;27;20015;-84
2021/12/03 02:29:24;;;;;;;346.83;80.75;;;;;;;-145.45;100.00;62759.84;5324896;27;20074;-84
2021/12/03 02:31:56;;;;;;;335.13;88.93;;;;;;;-145.45;100.00;62759.84;5325536;27;20026;-84
2021/12/03 02:34:27;;;;;;;335.30;78.45;;;;;;;-145.45;100.00;62759.84;5340641;27;20028;-84
2021/12/03 02:36:59;;;;;;;307.35;77.00;;;;;;;-145.45;100.00;62759.84;5333328;27;20061;-84
2021/12/03 02:39:31;;;;;;;291.25;90.65;;;;;;;-145.45;100.00;62759.84;5342828;27;20024;-83
2021/12/03 02:42:02;;;;;;;273.77;88.25;;;;;;;-145.45;100.00;62759.84;5333535;27;20380;-83
2021/12/03 02:44:34;;;;;;;269.63;91.50;;;;;;;-145.45;100.00;62759.84;5325202;27;20032;-84
2021/12/03 02:47:05;;;;;;;250.23;81.47;;;;;;;-145.45;100.00;62759.84;5326613;27;20030;-83
2021/12/03 02:49:39;;;;;;;254.40;75.28;;;;;;;-145.45;100.00;62759.84;5318721;27;20090;-83
2021/12/03 02:52:11;;;;;;;222.32;69.72;;;;;;;-145.45;100.00;62759.84;5321525;27;20023;-83
2021/12/03 02:54:42;;;;;;;220.95;71.15;;;;;;;-145.45;100.00;62759.84;5328665;27;20027;-83
2021/12/03 02:57:14;;;;;;;209.23;74.63;;;;;;;-145.45;100.00;62759.84;5315554;27;20024;-83
2021/12/03 02:59:49;;;;;;;217.93;69.20;;;;;;;-145.45;100.00;62759.84;5346601;27;20016;-84
2021/12/03 03:02:20;;;;;;;241.82;70.43;;;;;;;-145.45;100.00;62759.84;5322141;27;20135;-84
2021/12/03 03:04:53;;;;;;;194.50;67.15;;;;;;;-145.45;100.00;62759.84;5321949;27;20498;-84
2021/12/03 03:07:24;;;;;;;211.40;67.03;;;;;;;-145.45;100.00;62759.84;5334830;27;20028;-84
2021/12/03 03:09:56;;;;;;;216.85;71.55;;;;;;;-145.45;100.00;62759.84;5317991;27;20090;-84
2021/12/03 03:12:27;;;;;;;212.77;62.63;;;;;;;-145.45;100.00;62759.84;5329387;27;20489;-84
2021/12/03 03:15:00;;;;;;;215.90;65.78;;;;;;;-145.45;100.00;62759.84;5327515;27;20128;-84
2021/12/03 03:17:32;;;;;;;203.23;73.38;;;;;;;-145.45;100.00;62759.84;5324010;27;20461;-84
2021/12/03 03:20:05;;;;;;;218.73;64.90;;;;;;;-145.45;100.00;62759.84;5331534;27;20110;-84
2021/12/03 03:22:37;;;;;;;222.40;71.43;;;;;;;-145.45;100.00;62759.84;5337116;27;20024;-83
2021/12/03 03:25:13;;;;;;;230.63;80.63;;;;;;;-145.45;100.00;62759.84;5334815;27;20357;-84
2021/12/03 03:27:46;;;;;;;239.43;70.23;;;;;;;-145.45;100.00;62759.84;5324332;27;20085;-83
2021/12/03 03:30:19;;;;;;;253.15;70.65;;;;;;;-145.45;100.00;62759.84;5345761;27;20297;-84
2021/12/03 03:32:51;;;;;;;224.65;71.28;;;;;;;-145.45;100.00;62759.84;5338251;27;20062;-84
2021/12/03 03:35:22;;;;;;;251.18;69.78;;;;;;;-145.45;100.00;62759.84;5331939;27;20436;-84
2021/12/03 03:37:54;;;;;;;231.20;79.70;;;;;;;-145.45;100.00;62759.84;5330210;27;20123;-84
2021/12/03 03:40:27;;;;;;;213.10;70.45;;;;;;;-145.45;100.00;62759.84;5310622;27;20115;-83
2021/12/03 03:43:00;;;;;;;216.13;64.78;;;;;;;-145.45;100.00;62759.84;5342861;27;20023;-83
2021/12/03 03:45:33;;;;;;;209.50;71.80;;;;;;;-145.45;100.00;62759.84;5333866;27;20046;-83
2021/12/03 03:48:05;;;;;;;221.45;68.53;;;;;;;-145.45;100.00;62759.84;5340859;27;20027;-83
2021/12/03 03:50:38;;;;;;;223.10;67.68;;;;;;;-145.45;100.00;62759.84;5329606;27;20035;-84
2021/12/03 03:53:09;;;;;;;246.25;83.85;;;;;;;-145.45;100.00;62759.84;5350662;27;20023;-83
2021/12/03 03:55:41;;;;;;;243.05;69.40;;;;;;;-145.45;100.00;62759.84;5352966;27;20031;-84
2021/12/03 03:58:12;;;;;;;261.30;69.40;;;;;;;-145.45;100.00;62759.84;5344493;27;20030;-84
2021/12/03 04:00:45;;;;;;;239.85;74.38;;;;;;;-145.45;100.00;62759.84;5331490;27;20027;-84
2021/12/03 04:03:16;;;;;;;232.30;73.50;;;;;;;-145.45;100.00;62759.84;5319364;28;20020;-83
2021/12/03 04:05:48;;;;;;;235.40;68.90;;;;;;;-145.45;100.00;62759.84;5334497;27;20090;-83
2021/12/03 04:08:20;;;;;;;215.60;69.15;;;;;;;-145.45;100.00;62759.84;5331131;27;20134;-83
2021/12/03 04:10:51;;;;;;;217.02;62.30;;;;;;;-145.45;100.00;62759.84;5325648;27;20427;-83
2021/12/03 04:13:23;;;;;;;196.55;67.70;;;;;;;-145.45;100.00;62759.84;5333922;27;20121;-83
2021/12/03 04:15:54;;;;;;;189.32;63.72;;;;;;;-145.45;100.00;62759.84;5320331;28;20039;-83
2021/12/03 04:18:26;;;;;;;188.10;69.72;;;;;;;-145.45;100.00;62759.84;5320247;28;20032;-83
2021/12/03 04:20:57;;;;;;;175.75;59.13;;;;;;;-145.45;100.00;62759.84;5334454;27;20026;-83
2021/12/03 04:23:29;;;;;;;171.68;62.75;;;;;;;-145.45;100.00;62759.84;5342140;27;20035;-83
2021/12/03 04:26:00;;;;;;;187.18;65.88;;;;;;;-145.45;100.00;62759.84;5354559;27;20372;-83
2021/12/03 04:28:33;;;;;;;155.50;64.00;;;;;;;-145.45;100.00;62759.84;5327472;27;20027;-83
2021/12/03 04:31:04;;;;;;;174.13;63.05;;;;;;;-145.45;100.00;62759.84;5331858;27;20020;-83
2021/12/03 04:33:36;;;;;;;179.40;59.00;;;;;;;-145.45;100.00;62759.84;5347164;27;20026;-83
2021/12/03 04:36:08;;;;;;;177.93;75.07;;;;;;;-145.45;100.00;62759.84;5329358;27;20040;-84
2021/12/03 04:38:39;;;;;;;170.52;66.57;;;;;;;-145.45;100.00;62759.84;5336377;27;20118;-84
2021/12/03 04:41:11;;;;;;;178.77;60.63;;;;;;;-145.45;100.00;62759.84;5327623;27;20024;-84
2021/12/03 04:43:42;;;;;;;155.95;54.88;;;;;;;-145.45;100.00;62759.84;5345411;27;20125;-83
2021/12/03 04:46:14;;;;;;;172.82;64.32;;;;;;;-145.45;100.00;62759.84;5318693;27;20077;-84
2021/12/03 04:48:49;;;;;;;161.30;57.03;;;;;;;-145.45;100.00;62759.84;5335884;27;20038;-83
2021/12/03 04:51:20;;;;;;;150.07;58.35;;;;;;;-145.45;100.00;62759.84;5316546;27;20027;-83
2021/12/03 04:53:52;;;;;;;155.15;62.70;;;;;;;-145.45;100.00;62759.84;5322576;27;20031;-82
2021/12/03 04:56:26;;;;;;;144.43;58.22;;;;;;;-145.45;100.00;62759.84;5316298;27;20066;-83
2021/12/03 04:58:58;;;;;;;153.75;62.30;;;;;;;-145.45;100.00;62759.84;5322037;27;20117;-84
2021/12/03 05:01:30;;;;;;;147.18;66.10;;;;;;;-145.45;100.00;62759.84;5316816;27;20063;-83
2021/12/03 05:04:02;;;;;;;139.98;60.17;;;;;;;-145.45;100.00;62759.84;5319691;27;20161;-84
2021/12/03 05:09:23;;;;;;;120.97;57.40;;;;;;;-145.45;100.00;62759.84;5342731;27;20095;-85
2021/12/03 05:11:54;;;;;;;129.35;59.92;;;;;;;-145.45;100.00;62759.84;5323196;27;20038;-85
2021/12/03 05:14:27;;;;;;;108.03;50.67;;;;;;;-145.45;100.00;62759.84;5327840;27;20091;-84
2021/12/03 05:16:59;;;;;;;117.50;55.03;;;;;;;-145.45;100.00;62759.84;5324728;27;20062;-84
2021/12/03 05:19:31;;;;;;;100.50;51.00;;;;;;;-145.45;100.00;62759.84;5332971;27;20023;-84
2021/12/03 05:22:03;;;;;;;104.40;48.03;;;;;;;-145.45;100.00;62759.84;5332342;27;20030;-84
2021/12/03 05:24:34;;;;;;;100.78;49.35;;;;;;;-145.45;100.00;62759.84;5332197;27;20031;-84
2021/12/03 05:27:06;;;;;;;94.70;48.28;;;;;;;-145.45;100.00;62759.84;5367185;27;20032;-84
2021/12/03 05:29:37;;;;;;;90.18;44.20;;;;;;;-145.45;100.00;62759.84;5333681;27;20126;-84
2021/12/03 05:32:10;;;;;;;87.85;43.17;;;;;;;-145.45;100.00;62759.84;5343574;27;20019;-84
2021/12/03 05:34:42;;;;;;;80.55;40.47;;;;;;;-145.45;100.00;62759.84;5345528;27;20008;-84
2021/12/03 05:37:13;;;;;;;83.53;42.45;;;;;;;-145.45;100.00;62759.84;5347736;27;20019;-84
2021/12/03 05:39:45;;;;;;;80.22;41.15;;;;;;;-145.45;100.00;62759.84;5339710;27;20708;-84
2021/12/03 05:42:16;;;;;;;63.70;29.88;;;;;;;-145.45;100.00;62759.84;5344152;27;20016;-83
2021/12/03 05:44:50;;;;;;;63.88;34.05;;;;;;;-145.45;100.00;62759.84;5322450;27;20024;-84
2021/12/03 05:47:22;;;;;;;62.58;29.50;;;;;;;-145.45;100.00;62759.84;5319419;27;20528;-83
2021/12/03 05:49:54;;;;;;;72.05;33.63;;;;;;;-145.45;100.00;62759.84;5318846;27;20084;-84
2021/12/03 05:52:25;;;;;;;62.35;29.65;;;;;;;-145.45;100.00;62759.84;5320861;27;20062;-84
2021/12/03 05:54:57;;;;;;;65.32;30.10;;;;;;;-145.45;100.00;62759.84;5347489;27;20032;-84
2021/12/03 05:57:28;;;;;;;58.42;29.27;;;;;;;-145.45;100.00;62759.84;5326670;27;20701;-84
2021/12/03 06:00:00;;;;;;;65.22;30.15;;;;;;;-145.45;100.00;62759.84;5342249;27;20023;-84
2021/12/03 06:02:32;;;;;;;57.72;27.73;;;;;;;-145.45;100.00;62759.84;5314165;27;20115;-84
2021/12/03 06:05:04;;;;;;;56.00;25.58;;;;;;;-145.45;100.00;62759.84;5326052;27;20020;-84
2021/12/03 06:07:36;;;;;;;53.25;27.08;;;;;;;-145.45;100.00;62759.84;5333324;27;20306;-84
2021/12/03 06:10:08;;;;;;;55.85;26.17;;;;;;;-145.45;100.00;62759.84;5339550;27;20051;-84
2021/12/03 06:12:39;;;;;;;53.80;24.95;;;;;;;-145.45;100.00;62759.84;5342776;27;20566;-84
2021/12/03 06:15:11;;;;;;;45.70;22.70;;;;;;;-145.45;100.00;62759.84;5333231;27;20160;-84
2021/12/03 06:17:43;;;;;;;42.72;22.45;;;;;;;-145.45;100.00;62759.84;5334988;27;20020;-84
2021/12/03 06:20:16;;;;;;;43.10;21.40;;;;;;;-145.45;100.00;62759.84;5307667;28;20020;-84
2021/12/03 06:22:48;;;;;;;41.28;20.92;;;;;;;-145.45;100.00;62759.84;5312906;27;20031;-84
2021/12/03 06:25:21;;;;;;;38.88;20.63;;;;;;;-145.45;100.00;62759.84;5332922;27;20027;-84
2021/12/03 06:27:56;;;;;;;39.42;19.65;;;;;;;-145.45;100.00;62759.84;5331811;27;20118;-84
2021/12/03 06:30:27;;;;;;;40.78;20.02;;;;;;;-145.45;100.00;62759.84;5337864;27;20381;-84
2021/12/03 06:32:59;;;;;;;36.80;18.75;;;;;;;-145.45;100.00;62759.84;5335122;27;20030;-84
2021/12/03 06:35:31;;;;;;;31.02;16.13;;;;;;;-145.45;100.00;62759.84;5336960;27;20038;-84
2021/12/03 06:38:02;;;;;;;28.90;15.63;;;;;;;-145.45;100.00;62759.84;5331726;27;20023;-84
2021/12/03 06:40:34;;;;;;;35.53;15.60;;;;;;;-145.45;100.00;62759.84;5344990;27;20430;-84
2021/12/03 06:43:06;;;;;;;35.05;14.38;;;;;;;-145.45;100.00;62759.84;5331767;27;20034;-84
2021/12/03 06:45:38;;;;;;;38.55;15.18;;;;;;;-145.45;100.00;62759.84;5335920;27;20075;-84
2021/12/03 06:48:13;;;;;;;34.17;14.80;;;;;;;-145.45;100.00;62759.84;5349173;27;20019;-84
2021/12/03 06:50:45;;;;;;;33.05;13.23;;;;;;;-145.45;100.00;62759.84;5328831;27;20031;-84
2021/12/03 06:53:24;;;;;;;34.35;15.10;;;;;;;-145.45;100.00;62759.84;5340717;27;20019;-83
2021/12/03 06:56:04;;;;;;;28.55;14.77;;;;;;;-145.45;100.00;62759.84;5349079;27;20035;-82
2021/12/03 06:58:36;;;;;;;38.00;13.60;;;;;;;-145.45;100.00;62759.84;5335303;27;20023;-82
2021/12/03 07:01:07;;;;;;;27.90;13.38;;;;;;;-145.45;100.00;62759.84;5327825;27;20026;-81
2021/12/03 07:03:39;;;;;;;32.78;12.98;;;;;;;-145.45;100.00;62759.84;5326665;27;20039;-82
2021/12/03 07:06:10;;;;;;;32.72;13.43;;;;;;;-145.45;100.00;62759.84;5332260;27;20410;-81
2021/12/03 07:08:42;;;;;;;32.53;13.35;;;;;;;-145.45;100.00;62759.84;5342457;27;20019;-82
2021/12/03 07:11:13;;;;;;;32.92;12.95;;;;;;;-145.45;100.00;62759.84;5347803;27;20035;-81
2021/12/03 07:13:45;;;;;;;32.38;13.13;;;;;;;-145.45;100.00;62759.84;5327653;27;20023;-82
2021/12/03 07:16:17;;;;;;;27.45;12.10;;;;;;;-145.45;100.00;62759.84;5321386;27;20032;-82
2021/12/03 07:18:48;;;;;;;24.42;10.43;;;;;;;-145.45;100.00;62759.84;5319430;28;20028;-82
2021/12/03 07:21:20;;;;;;;27.95;10.95;;;;;;;-145.45;100.00;62759.84;5310635;28;20024;-82
2021/12/03 07:23:53;;;;;;;30.00;11.55;;;;;;;-145.45;100.00;62759.84;5332955;27;20406;-83
2021/12/03 07:26:25;;;;;;;23.92;10.85;;;;;;;-145.45;100.00;62759.84;5342366;27;20811;-84
2021/12/03 07:28:57;;;;;;;31.10;10.82;;;;;;;-145.45;100.00;62759.84;5343172;27;20480;-84
2021/12/03 07:31:28;;;;;;;31.45;10.93;;;;;;;-145.45;100.00;62759.84;5345079;27;20030;-84
2021/12/03 07:34:00;;;;;;;28.30;9.00;;;;;;;-145.45;100.00;62759.84;5335663;27;20529;-83
2021/12/03 07:36:32;;;;;;;22.40;9.77;;;;;;;-145.45;100.00;62759.84;5329575;27;20047;-83
2021/12/03 07:39:03;;;;;;;31.55;10.13;;;;;;;-145.45;100.00;62759.84;5322656;28;20024;-84
2021/12/03 07:41:39;;;;;;;28.85;10.90;;;;;;;-145.45;100.00;62759.84;5324330;27;20023;-84
2021/12/03 07:44:11;;;;;;;29.35;9.60;;;;;;;-145.45;100.00;62759.84;5321603;27;20476;-83
2021/12/03 07:46:45;;;;;;;35.45;8.93;;;;;;;-145.45;100.00;62759.84;5324924;27;20059;-83
2021/12/03 07:49:17;;;;;;;30.58;10.30;;;;;;;-145.45;100.00;62759.84;5324950;27;20502;-83
2021/12/03 07:51:48;;;;;;;25.15;8.77;;;;;;;-145.45;100.00;62759.84;5338233;27;20023;-83
2021/12/03 07:54:20;;;;;;;24.42;8.23;;;;;;;-145.45;100.00;62759.84;5335531;27;20413;-83
2021/12/03 07:56:52;;;;;;;26.92;8.60;;;;;;;-145.45;100.00;62759.84;5322815;28;20093;-83
2021/12/03 07:59:23;;;;;;;30.70;8.25;;;;;;;-145.45;100.00;62759.84;5323476;27;20028;-83
2021/12/03 08:01:54;;;;;;;24.73;8.07;;;;;;;-145.45;100.00;62759.84;5326824;27;20024;-83
2021/12/03 08:04:26;;;;;;;31.38;9.07;;;;;;;-145.45;100.00;62759.84;5322982;28;20056;-83
2021/12/03 08:07:00;;;;;;;29.63;8.13;;;;;;;-145.45;100.00;62759.84;5333504;27;20027;-84
2021/12/03 08:09:32;;;;;;;21.80;7.88;;;;;;;-145.45;100.00;62759.84;5341218;27;20044;-83
2021/12/03 08:12:06;;;;;;;27.88;7.65;;;;;;;-145.45;100.00;62759.84;5328707;27;20020;-83
2021/12/03 08:14:37;;;;;;;27.73;8.27;;;;;;;-145.45;100.00;62759.84;5350325;27;20082;-84
2021/12/03 08:17:09;;;;;;;24.65;8.13;;;;;;;-145.45;100.00;62759.84;5343634;27;20032;-83
2021/12/03 08:19:40;;;;;;;26.13;7.82;;;;;;;-145.45;100.00;62759.84;5327026;28;20014;-83
2021/12/03 08:22:12;;;;;;;23.45;7.32;;;;;;;-145.45;100.00;62759.84;5324991;27;20043;-83
2021/12/03 08:24:43;;;;;;;26.25;8.05;;;;;;;-145.45;100.00;62759.84;5326674;28;20107;-83
2021/12/03 08:27:15;;;;;;;21.38;8.25;;;;;;;-145.45;100.00;62759.84;5324938;28;20024;-83
2021/12/03 08:29:46;;;;;;;21.35;6.32;;;;;;;-145.45;100.00;62759.84;5327227;27;20094;-84
2021/12/03 08:32:19;;;;;;;36.03;7.78;;;;;;;-145.45;100.00;62759.84;5329991;28;20459;-83
2021/12/03 08:34:50;;;;;;;25.92;7.00;;;;;;;-145.45;100.00;62759.84;5328332;28;20030;-84
2021/12/03 08:37:21;;;;;;;20.02;6.47;;;;;;;-145.45;100.00;62759.84;5329580;27;20024;-83
2021/12/03 08:39:53;;;;;;;28.52;6.00;;;;;;;-145.45;100.00;62759.84;5328707;27;20039;-83
2021/12/03 08:42:24;;;;;;;19.77;6.05;;;;;;;-145.45;100.00;62759.84;5347508;27;20027;-83
2021/12/03 08:44:58;;;;;;;24.65;7.03;;;;;;;-145.45;100.00;62759.84;5349468;27;20020;-83
2021/12/03 08:47:32;;;;;;;28.25;7.03;;;;;;;-145.45;100.00;62759.84;5342938;27;20028;-83
2021/12/03 08:50:10;;;;;;;24.75;6.22;;;;;;;-145.45;100.00;62759.84;5325072;28;20032;-83
2021/12/03 08:53:07;;;;;;;21.15;5.93;;;;;;;-145.45;100.00;62759.84;5326892;27;20385;-83
2021/12/03 08:55:34;;;;;;;22.30;5.18;;;;;;;-145.45;100.00;62759.84;5325521;27;20032;-84
2021/12/03 08:58:06;;;;;;;15.82;6.35;;;;;;;-145.45;100.00;62759.84;5329633;27;20022;-84
2021/12/03 09:00:38;;;;;;;26.98;6.80;;;;;;;-145.45;100.00;62759.84;5325219;28;20031;-84
2021/12/03 09:03:10;;;;;;;24.35;6.07;;;;;;;-145.45;100.00;62759.84;5329480;27;20094;-84
2021/12/03 09:05:44;;;;;;;29.40;7.95;;;;;;;-145.45;100.00;62759.84;5327076;27;20032;-84
2021/12/03 09:08:16;;;;;;;23.40;6.18;;;;;;;-145.45;100.00;62759.84;5324951;28;20141;-84
2021/12/03 09:10:47;;;;;;;23.75;6.50;;;;;;;-145.45;100.00;62759.84;5336050;27;20027;-83
2021/12/03 09:13:19;;;;;;;24.00;6.63;;;;;;;-145.45;100.00;62759.84;5338849;27;20028;-83
2021/12/03 09:16:24;;;;;;;22.60;7.38;;;;;;;-145.45;100.00;62759.84;5326654;27;20043;-84
2021/12/03 09:18:51;;;;;;;30.52;7.70;;;;;;;-145.45;100.00;62759.84;5324195;27;20111;-83
2021/12/03 09:21:25;;;;;;;31.08;8.40;;;;;;;-145.45;100.00;62759.84;5346157;27;20023;-83
2021/12/03 09:24:12;;;;;;;25.80;7.13;;;;;;;-145.45;100.00;62759.84;5345914;27;20463;-83
2021/12/03 09:26:43;;;;;;;;;;;;;;;-145.45;100.00;62759.84;5346616;27;20035;-83
2021/12/03 09:29:23;;;;;;;24.20;7.20;;;;;;;-145.45;100.00;62759.84;5345301;27;19926;-83
2021/12/03 09:31:56;;;;;;;19.45;8.23;;;;;;;-145.45;100.00;62759.84;5346031;27;20078;-84
2021/12/03 09:34:32;;;;;;;19.83;6.80;;;;;;;-145.45;100.00;62759.84;5346639;27;20361;-83
2021/12/03 09:37:04;;;;;;;22.95;7.88;;;;;;;-145.45;100.00;62759.84;5346079;27;20080;-83
2021/12/03 09:39:39;;;;;;;18.90;6.65;;;;;;;-145.45;100.00;62759.84;5345373;27;20024;-83
2021/12/03 09:42:14;;;;;;;22.27;6.32;;;;;;;-145.45;100.00;62759.84;5345285;27;20027;-82
2021/12/03 09:44:49;;;;;;;23.58;7.25;;;;;;;-145.45;100.00;62759.84;5330708;27;20025;-83
2021/12/03 09:47:20;;;;;;;26.13;6.68;;;;;;;-145.45;100.00;62759.84;5303620;28;20024;-83
2021/12/03 09:49:55;;;;;;;21.17;6.40;;;;;;;-145.45;100.00;62759.84;5303560;28;20054;-85
2021/12/03 09:52:31;;;;;;;23.58;6.57;;;;;;;-145.45;100.00;62759.84;5303392;28;20025;-83
2021/12/03 09:55:10;;;;;;;20.08;6.25;;;;;;;-145.45;100.00;62759.84;5302067;28;20039;-84
2021/12/03 10:00:31;;;;;;;16.67;5.43;;;;;;;-145.45;100.00;62759.84;5335497;27;20079;-84
2021/12/03 10:20:19;;;;;;;20.20;6.15;;;;;;;-145.45;100.00;62759.84;5313309;27;20036;-83
2021/12/03 10:29:25;;;;;;;24.00;6.10;;;;;;;-145.45;100.00;62759.84;5309774;28;20048;-84
2021/12/03 10:35:18;;;;;;;20.08;5.60;;;;;;;-145.45;100.00;62759.84;5335030;27;20043;-84
2021/12/03 11:00:42;;;;;;;17.38;6.30;;;;;;;-145.45;100.00;62759.84;5347121;27;20267;-84
2021/12/03 11:33:48;;;;;;;13.60;5.95;;;;;;;-145.45;100.00;62759.84;5368102;27;20126;-83
2021/12/03 11:35:32;;;;;;;15.35;6.75;;;;;;;-145.45;100.00;62759.84;5358482;27;20020;-82
2021/12/03 13:17:58;;;;;;;7.18;3.45;;;;;;;-145.45;100.00;62759.84;5334146;27;20040;-86
2021/12/03 13:23:43;;;;;;;6.03;3.03;;;;;;;-145.45;100.00;62759.84;5371928;27;20039;-90
2021/12/03 14:06:33;;;;;;;6.97;2.83;;;;;;;-145.45;100.00;62759.84;5368289;27;20035;-91
2021/12/03 14:12:36;;;;;;;7.53;2.88;;;;;;;-145.45;100.00;62759.84;5369622;27;20027;-85
2021/12/03 14:42:32;;;;;;;4.90;3.35;;;;;;;-145.45;100.00;62759.84;5303633;28;20037;-85
2021/12/03 14:45:11;;;;;;;6.78;3.75;;;;;;;-145.45;100.00;62759.84;5312265;27;20031;-84
2021/12/03 14:48:05;;;;;;;10.10;3.65;;;;;;;-145.45;100.00;62759.84;5323615;28;20063;-84
2021/12/03 14:56:09;;;;;;;6.95;3.42;;;;;;;-145.45;100.00;62759.84;5324948;28;20075;-84
2021/12/03 15:01:27;;;;;;;7.25;4.25;;;;;;;-145.45;100.00;62759.84;5324803;28;20169;-83
2021/12/03 15:04:31;;;;;;;5.65;4.30;;;;;;;-145.45;100.00;62759.84;5323048;27;20071;-83
2021/12/03 15:07:09;;;;;;;7.13;3.40;;;;;;;-145.45;100.00;62759.84;5326754;27;20438;-84
2021/12/03 15:09:43;;;;;;;7.25;3.38;;;;;;;-145.45;100.00;62759.84;5344225;27;20114;-84
2021/12/03 15:18:35;;;;;;;6.93;3.10;;;;;;;-145.45;100.00;62759.84;5325285;28;20059;-84
2021/12/03 15:34:34;;;;;;;6.65;3.05;;;;;;;-145.45;100.00;62759.84;5349940;27;20032;-84
2021/12/03 15:37:41;;;;;;;4.95;3.40;;;;;;;-145.45;100.00;62759.84;5323339;28;20487;-84
2021/12/03 15:57:59;;;;;;;8.52;4.45;;;;;;;-145.45;100.00;62759.84;5325577;28;20028;-84
2021/12/03 16:08:29;;;;;;;5.63;4.75;;;;;;;-145.45;100.00;62759.84;5374227;27;20383;-83
2021/12/03 16:14:08;;;;;;;6.25;5.63;;;;;;;-145.45;100.00;62759.84;5369371;27;20103;-84
2021/12/03 16:17:06;;;;;;;7.85;6.47;;;;;;;-145.45;100.00;62759.84;5348494;27;20027;-83
2021/12/03 16:22:31;;;;;;;8.27;6.07;;;;;;;-145.45;100.00;62759.84;5366678;27;20053;-82
2021/12/03 16:52:52;;;;;;;11.77;9.20;;;;;;;-145.45;100.00;62759.84;5351279;27;20578;-83
2021/12/03 16:55:23;;;;;;;10.07;9.02;;;;;;;-145.45;100.00;62759.84;5345725;27;20492;-83
2021/12/03 16:57:55;;;;;;;10.25;9.25;;;;;;;-145.45;100.00;62759.84;5336683;27;20023;-82
2021/12/03 17:00:36;;;;;;;10.02;9.13;;;;;;;-145.45;100.00;62759.84;5344573;27;20023;-84
2021/12/03 17:16:28;;;;;;;11.57;10.30;;;;;;;-145.45;100.00;62759.84;5359645;27;20036;-84
2021/12/03 17:47:32;;;;;;;14.07;11.65;;;;;;;-145.45;100.00;62759.84;5351964;27;20028;-84
2021/12/03 17:56:02;;;;;;;11.98;10.88;;;;;;;-145.45;100.00;62759.84;5356756;27;20504;-84